Capt Latham — WDH4276 — position and weather

sailwx.info

Track history (hours):
 
Tides and Currents Weather Stations Pressure Air Temp Water Temp Dewpoint Dewpoint Depression Visibility Wind Speed Wind Dir Waves Ship Positions

Capt Latham

Owner: CAPT. LATHAM, LLC, GREEN COVE SPRINGS, FL. More information available from US FCC via Universal Licensing System and Coast Guard Vessel Documentation Center.

Last reported at 2017-Sep-27 04:14 UTC. Time now 2017-Oct-17 22:45 UTC.
Position N 33°20' W 013°21'.
Warning: this ship's position is 20 days out of date.

Length 39 m; draft 3 m.

Type: Tow > 200 m length. MMSI: 338642000.

Date/timePositionNaut miles runAvg speedWind from/ knotsBaromVisibWave heightAir tempDewpointWater temp
2017-Sep-27 04:14N 33°20' W 013°21'  
2017-Sep-24 20:34N 35°58' W 005°36'2 5.4
2017-Sep-24 20:07N 35°58' W 005°33'1 5.2
2017-Sep-24 19:52N 35°58' W 005°32'2 5.8
2017-Sep-24 19:30N 35°59' W 005°29'3 6.4
2017-Sep-24 19:00N 35°60' W 005°25'3 6.2
2017-Sep-24 18:30N 36°00' W 005°22'3 5.8
2017-Sep-24 18:00N 36°01' W 005°18'3 5.7
2017-Sep-24 17:30N 36°03' W 005°15'4 7.4
2017-Sep-24 17:01N 36°06' W 005°15'  
2017-Sep-20 19:30N 36°09' W 007°22'8 4.3
2017-Sep-20 17:40N 36°11' W 007°32'1 4.5
2017-Sep-20 17:25N 36°11' W 007°33'2 4.7
2017-Sep-20 16:58N 36°12' W 007°36'3 4.8
2017-Sep-20 16:19N 36°12' W 007°39'1 4.8
2017-Sep-20 16:01N 36°13' W 007°41'2 4.8
2017-Sep-20 15:30N 36°13' W 007°44'2 4.6
2017-Sep-20 15:00N 36°14' W 007°47'14 4.8
2017-Sep-20 12:00N 36°17' W 008°04'6 4.9
2017-Sep-20 10:41N 36°19' W 008°12'1 5.0
2017-Sep-20 10:30N 36°19' W 008°13'20 4.9
2017-Sep-20 06:19N 36°24' W 008°37'2 4.9
2017-Sep-20 06:01N 36°24' W 008°39'2 4.9
2017-Sep-20 05:31N 36°25' W 008°42'15 4.6
2017-Sep-20 02:17N 36°28' W 009°00'2 4.7
2017-Sep-20 01:46N 36°29' W 009°03'12 4.2
2017-Sep-19 22:50N 36°32' W 009°18'  
Track history (hours):
 
Tides and Currents Weather Stations Pressure Air Temp Water Temp Dewpoint Dewpoint Depression Visibility Wind Speed Wind Dir Waves Ship Positions

Capt Latham

Owner: CAPT. LATHAM, LLC, GREEN COVE SPRINGS, FL. More information available from US FCC via Universal Licensing System and Coast Guard Vessel Documentation Center.

Last reported at 2017-Sep-27 04:14 UTC. Time now 2017-Oct-17 22:45 UTC.
Position N 33°20' W 013°21'.
Warning: this ship's position is 20 days out of date.

Length 39 m; draft 3 m.

Type: Tow > 200 m length. MMSI: 338642000.

Date/timePositionNaut miles runAvg speedWind from/ knotsBaromVisibWave heightAir tempDewpointWater temp
2017-Sep-27 04:14N 33°20' W 013°21'  
2017-Sep-24 20:34N 35°58' W 005°36'2 5.4
2017-Sep-24 20:07N 35°58' W 005°33'1 5.2
2017-Sep-24 19:52N 35°58' W 005°32'2 5.8
2017-Sep-24 19:30N 35°59' W 005°29'3 6.4
2017-Sep-24 19:00N 35°60' W 005°25'3 6.2
2017-Sep-24 18:30N 36°00' W 005°22'3 5.8
2017-Sep-24 18:00N 36°01' W 005°18'3 5.7
2017-Sep-24 17:30N 36°03' W 005°15'4 7.4
2017-Sep-24 17:01N 36°06' W 005°15'  
2017-Sep-20 19:30N 36°09' W 007°22'8 4.3
2017-Sep-20 17:40N 36°11' W 007°32'1 4.5
2017-Sep-20 17:25N 36°11' W 007°33'2 4.7
2017-Sep-20 16:58N 36°12' W 007°36'3 4.8
2017-Sep-20 16:19N 36°12' W 007°39'1 4.8
2017-Sep-20 16:01N 36°13' W 007°41'2 4.8
2017-Sep-20 15:30N 36°13' W 007°44'2 4.6
2017-Sep-20 15:00N 36°14' W 007°47'14 4.8
2017-Sep-20 12:00N 36°17' W 008°04'6 4.9
2017-Sep-20 10:41N 36°19' W 008°12'1 5.0
2017-Sep-20 10:30N 36°19' W 008°13'20 4.9
2017-Sep-20 06:19N 36°24' W 008°37'2 4.9
2017-Sep-20 06:01N 36°24' W 008°39'2 4.9
2017-Sep-20 05:31N 36°25' W 008°42'15 4.6
2017-Sep-20 02:17N 36°28' W 009°00'2 4.7
2017-Sep-20 01:46N 36°29' W 009°03'12 4.2
2017-Sep-19 22:50N 36°32' W 009°18'  

Dump ship's entire track history